Time;durP1;ratioP1;P1;durP2;ratioP2;P2;SDS_P1;SDS_P2;PMS_P1;PMS_P2;Temp;Humidity;BMP_temperature;BMP_pressure;BME280_temperature;BME280_humidity;BME280_pressure;Samples;Min_cycle;Max_cycle;Signal;HPM_P1;HPM_P2
2023/07/31 00:00:39;;;;;;;8.82;3.17;;;;;;;;;;6212335;23;20020;-65
2023/07/31 00:03:05;;;;;;;5.25;2.97;;;;;;;;;;6211823;23;20023;-65
2023/07/31 00:05:31;;;;;;;4.30;3.45;;;;;;;;;;6211187;23;20269;-65
2023/07/31 00:07:57;;;;;;;5.75;3.40;;;;;;;;;;6212121;23;20067;-65
2023/07/31 00:10:23;;;;;;;5.47;3.70;;;;;;;;;;6212157;23;20424;-65
2023/07/31 00:12:49;;;;;;;6.60;3.75;;;;;;;;;;6211502;23;20096;-65
2023/07/31 00:15:15;;;;;;;6.63;3.53;;;;;;;;;;6212132;23;20019;-65
2023/07/31 00:17:41;;;;;;;5.25;3.50;;;;;;;;;;6211962;23;20013;-65
2023/07/31 00:20:07;;;;;;;6.93;3.42;;;;;;;;;;6211505;23;20020;-65
2023/07/31 00:22:33;;;;;;;5.18;3.45;;;;;;;;;;6211662;23;20036;-65
2023/07/31 00:24:59;;;;;;;4.95;4.00;;;;;;;;;;6212090;23;20016;-65
2023/07/31 00:27:25;;;;;;;5.57;3.45;;;;;;;;;;6212081;23;20319;-65
2023/07/31 00:29:51;;;;;;;6.57;3.58;;;;;;;;;;6211434;23;20394;-65
2023/07/31 00:32:17;;;;;;;7.80;3.72;;;;;;;;;;6212225;23;20012;-65
2023/07/31 00:34:43;;;;;;;7.57;3.47;;;;;;;;;;6211882;23;20012;-65
2023/07/31 00:37:09;;;;;;;6.75;3.15;;;;;;;;;;6210874;23;20016;-65
2023/07/31 00:39:35;;;;;;;4.55;3.30;;;;;;;;;;6212067;23;20019;-65
2023/07/31 00:42:01;;;;;;;3.70;2.88;;;;;;;;;;6211082;23;20070;-65
2023/07/31 00:44:27;;;;;;;4.32;2.85;;;;;;;;;;6211232;23;20318;-65
2023/07/31 00:46:54;;;;;;;6.43;2.83;;;;;;;;;;6211227;23;20013;-65
2023/07/31 00:49:21;;;;;;;4.47;2.78;;;;;;;;;;6211798;23;20016;-65
2023/07/31 00:51:47;;;;;;;5.22;3.00;;;;;;;;;;6211721;23;20503;-65
2023/07/31 00:54:13;;;;;;;3.47;2.17;;;;;;;;;;6211768;23;20057;-65
2023/07/31 00:56:39;;;;;;;4.30;2.60;;;;;;;;;;6211919;23;20012;-65
2023/07/31 00:59:05;;;;;;;4.22;2.08;;;;;;;;;;6211208;23;20016;-65
2023/07/31 01:01:31;;;;;;;5.15;2.70;;;;;;;;;;6211321;23;20022;-65
2023/07/31 01:03:57;;;;;;;3.03;1.95;;;;;;;;;;6211478;23;20059;-65
2023/07/31 01:06:36;;;;;;;4.68;2.13;;;;;;;;;;6211059;23;20473;-65
2023/07/31 01:09:04;;;;;;;9.93;2.33;;;;;;;;;;6211302;23;20012;-65
2023/07/31 01:11:39;;;;;;;4.95;2.50;;;;;;;;;;6211510;23;20464;-65
2023/07/31 01:14:05;;;;;;;4.68;1.90;;;;;;;;;;6211323;23;20028;-65
2023/07/31 01:16:31;;;;;;;4.68;1.92;;;;;;;;;;6211356;23;20016;-65
2023/07/31 01:18:57;;;;;;;3.25;1.50;;;;;;;;;;6211770;23;20088;-65
2023/07/31 01:21:40;;;;;;;5.00;2.17;;;;;;;;;;6210986;23;20013;-65
2023/07/31 01:24:21;;;;;;;2.72;2.00;;;;;;;;;;6211317;23;20024;-65
2023/07/31 01:27:08;;;;;;;1.85;1.40;;;;;;;;;;6211074;23;20012;-65
2023/07/31 01:29:49;;;;;;;2.78;1.67;;;;;;;;;;6190463;23;20013;-65
2023/07/31 01:32:17;;;;;;;3.67;1.90;;;;;;;;;;6211414;23;20135;-65
2023/07/31 01:34:44;;;;;;;4.22;2.00;;;;;;;;;;6210922;23;20151;-65
2023/07/31 01:37:10;;;;;;;3.30;1.63;;;;;;;;;;6210870;23;20027;-65
2023/07/31 01:39:36;;;;;;;5.10;1.70;;;;;;;;;;6211418;23;20092;-65
2023/07/31 01:42:02;;;;;;;4.68;1.70;;;;;;;;;;6210787;23;20035;-65
2023/07/31 01:44:28;;;;;;;5.43;1.70;;;;;;;;;;6211133;23;20017;-65
2023/07/31 01:46:54;;;;;;;1.25;1.15;;;;;;;;;;6211204;23;20032;-65
2023/07/31 01:49:20;;;;;;;2.05;1.52;;;;;;;;;;6210637;23;20024;-65
2023/07/31 01:51:46;;;;;;;3.13;1.48;;;;;;;;;;6211416;23;20008;-65
2023/07/31 01:54:12;;;;;;;1.98;1.23;;;;;;;;;;6184014;23;20017;-65
2023/07/31 01:56:38;;;;;;;6.00;1.30;;;;;;;;;;6210479;23;20041;-65
2023/07/31 01:59:04;;;;;;;1.45;1.20;;;;;;;;;;6210997;23;20021;-65
2023/07/31 02:01:30;;;;;;;3.63;1.50;;;;;;;;;;6210810;23;20020;-65
2023/07/31 02:03:55;;;;;;;6.45;1.40;;;;;;;;;;6210542;23;20023;-65
2023/07/31 02:06:22;;;;;;;4.55;1.50;;;;;;;;;;6211016;23;20020;-65
2023/07/31 02:08:48;;;;;;;2.17;1.30;;;;;;;;;;6211294;23;20066;-65
2023/07/31 02:11:14;;;;;;;2.58;1.38;;;;;;;;;;6210728;23;20205;-65
2023/07/31 02:13:40;;;;;;;7.85;1.85;;;;;;;;;;6183924;23;20025;-65
2023/07/31 02:16:06;;;;;;;2.92;1.02;;;;;;;;;;6211067;23;20318;-65
2023/07/31 02:18:32;;;;;;;3.53;1.00;;;;;;;;;;6210686;23;20016;-65
2023/07/31 02:20:58;;;;;;;1.50;1.08;;;;;;;;;;6210897;23;20039;-65
2023/07/31 02:23:24;;;;;;;1.65;0.90;;;;;;;;;;6210868;23;20340;-65
2023/07/31 02:25:50;;;;;;;3.35;1.00;;;;;;;;;;6211003;23;20020;-65
2023/07/31 02:28:16;;;;;;;8.80;1.80;;;;;;;;;;6210668;23;20440;-65
2023/07/31 02:30:45;;;;;;;1.00;0.90;;;;;;;;;;6211271;23;20099;-65
2023/07/31 02:33:11;;;;;;;2.70;1.05;;;;;;;;;;6210777;23;20024;-65
2023/07/31 02:35:37;;;;;;;1.70;1.20;;;;;;;;;;6183431;23;20020;-65
2023/07/31 02:38:03;;;;;;;1.83;0.98;;;;;;;;;;6210850;23;20087;-65
2023/07/31 02:40:29;;;;;;;3.15;1.08;;;;;;;;;;6209496;23;20252;-65
2023/07/31 02:42:55;;;;;;;2.35;0.93;;;;;;;;;;6210286;23;20147;-65
2023/07/31 02:45:21;;;;;;;3.47;1.13;;;;;;;;;;6210783;23;20045;-65
2023/07/31 02:47:47;;;;;;;1.38;1.02;;;;;;;;;;6210925;23;20013;-65
2023/07/31 02:50:13;;;;;;;2.28;1.13;;;;;;;;;;6210205;23;20008;-65
2023/07/31 02:52:39;;;;;;;1.15;0.93;;;;;;;;;;6210517;23;20074;-65
2023/07/31 02:55:05;;;;;;;1.95;1.20;;;;;;;;;;6210836;23;20436;-65
2023/07/31 02:57:31;;;;;;;1.77;0.93;;;;;;;;;;6210344;23;20055;-65
2023/07/31 02:59:57;;;;;;;1.67;0.90;;;;;;;;;;6210817;23;20340;-65
2023/07/31 03:02:23;;;;;;;1.20;1.00;;;;;;;;;;6183731;23;20074;-65
2023/07/31 03:04:49;;;;;;;1.67;1.10;;;;;;;;;;6210720;23;20420;-65
2023/07/31 03:07:15;;;;;;;1.60;1.33;;;;;;;;;;6212225;23;20112;-65
2023/07/31 03:09:41;;;;;;;2.88;1.60;;;;;;;;;;6212888;23;20013;-65
2023/07/31 03:12:08;;;;;;;1.40;1.30;;;;;;;;;;6212041;23;20009;-65
2023/07/31 03:14:34;;;;;;;1.88;1.40;;;;;;;;;;6212642;23;20005;-65
2023/07/31 03:17:00;;;;;;;2.08;1.83;;;;;;;;;;6213199;23;20634;-65
2023/07/31 03:19:26;;;;;;;2.90;1.85;;;;;;;;;;6212384;23;20008;-65
2023/07/31 03:21:52;;;;;;;4.43;2.10;;;;;;;;;;6212767;23;20044;-65
2023/07/31 03:24:18;;;;;;;3.33;1.80;;;;;;;;;;6212578;23;20335;-65
2023/07/31 03:26:44;;;;;;;2.83;2.28;;;;;;;;;;6212193;23;20027;-65
2023/07/31 03:29:10;;;;;;;3.33;2.20;;;;;;;;;;6212422;23;20017;-65
2023/07/31 03:31:36;;;;;;;4.18;2.00;;;;;;;;;;6212251;23;20012;-65
2023/07/31 03:34:02;;;;;;;4.03;1.77;;;;;;;;;;6211628;23;20017;-65
2023/07/31 03:36:27;;;;;;;5.72;2.72;;;;;;;;;;6212347;23;20020;-65
2023/07/31 03:38:53;;;;;;;3.33;2.30;;;;;;;;;;6212819;23;20428;-65
2023/07/31 03:41:19;;;;;;;5.57;2.50;;;;;;;;;;6211603;23;20419;-65
2023/07/31 03:43:55;;;;;;;4.18;2.42;;;;;;;;;;6212152;23;20024;-65
2023/07/31 03:46:22;;;;;;;5.45;2.28;;;;;;;;;;6212200;23;20430;-65
2023/07/31 03:48:48;;;;;;;4.55;2.58;;;;;;;;;;6212079;23;20444;-65
2023/07/31 03:51:14;;;;;;;4.25;2.05;;;;;;;;;;6212628;23;20019;-65
2023/07/31 03:53:40;;;;;;;4.32;2.63;;;;;;;;;;6212162;23;20016;-65
2023/07/31 03:56:06;;;;;;;5.53;2.10;;;;;;;;;;6211883;23;20088;-65
2023/07/31 03:58:32;;;;;;;5.97;2.65;;;;;;;;;;6210854;23;20074;-65
2023/07/31 04:00:58;;;;;;;3.83;2.25;;;;;;;;;;6212361;23;20091;-65
2023/07/31 04:03:24;;;;;;;3.90;2.05;;;;;;;;;;6212398;23;20047;-65
2023/07/31 04:05:50;;;;;;;3.05;1.95;;;;;;;;;;6214257;23;20012;-65
2023/07/31 04:08:16;;;;;;;6.47;2.45;;;;;;;;;;6212755;23;20419;-65
2023/07/31 04:10:42;;;;;;;8.32;2.30;;;;;;;;;;6213990;23;20421;-65
2023/07/31 04:13:08;;;;;;;5.47;1.80;;;;;;;;;;6214316;23;20060;-65
2023/07/31 04:15:34;;;;;;;3.17;1.15;;;;;;;;;;6214175;23;20020;-65
2023/07/31 04:18:00;;;;;;;2.05;1.20;;;;;;;;;;6213979;23;20029;-65
2023/07/31 04:20:26;;;;;;;2.40;1.23;;;;;;;;;;6187510;23;20016;-65
2023/07/31 04:22:52;;;;;;;6.38;2.20;;;;;;;;;;6214109;23;20012;-65
2023/07/31 04:25:18;;;;;;;5.68;2.47;;;;;;;;;;6213834;23;20015;-65
2023/07/31 04:27:44;;;;;;;10.10;3.00;;;;;;;;;;6214318;23;20079;-65
2023/07/31 04:30:10;;;;;;;7.50;3.10;;;;;;;;;;6214115;23;20052;-65
2023/07/31 04:32:36;;;;;;;9.98;3.55;;;;;;;;;;6213886;23;20321;-65
2023/07/31 04:35:03;;;;;;;10.50;4.05;;;;;;;;;;6213953;23;20016;-65
2023/07/31 04:37:29;;;;;;;13.07;3.72;;;;;;;;;;6213938;23;20106;-65
2023/07/31 04:39:55;;;;;;;11.40;4.50;;;;;;;;;;6213678;23;20028;-65
2023/07/31 04:42:21;;;;;;;10.38;4.90;;;;;;;;;;6214088;23;20095;-65
2023/07/31 04:44:47;;;;;;;12.75;5.00;;;;;;;;;;6213840;23;20063;-65
2023/07/31 04:47:13;;;;;;;14.30;5.53;;;;;;;;;;6213648;23;20013;-65
2023/07/31 04:49:39;;;;;;;11.05;4.90;;;;;;;;;;6214086;23;20013;-65
2023/07/31 04:52:05;;;;;;;15.70;5.55;;;;;;;;;;6212653;23;20012;-65
2023/07/31 04:54:31;;;;;;;11.98;5.18;;;;;;;;;;6186027;23;20021;-65
2023/07/31 04:56:57;;;;;;;15.52;5.40;;;;;;;;;;6213628;23;20668;-65
2023/07/31 04:59:23;;;;;;;15.75;6.10;;;;;;;;;;6213059;23;20608;-65
2023/07/31 05:01:49;;;;;;;16.42;6.07;;;;;;;;;;6212733;23;20023;-65
2023/07/31 05:04:15;;;;;;;18.63;6.43;;;;;;;;;;6213137;23;20019;-65
2023/07/31 05:06:41;;;;;;;17.88;6.03;;;;;;;;;;6213613;23;20420;-65
2023/07/31 05:09:09;;;;;;;19.25;6.38;;;;;;;;;;6213462;23;20023;-65
2023/07/31 05:11:35;;;;;;;30.20;7.63;;;;;;;;;;6213946;23;20024;-65
2023/07/31 05:14:01;;;;;;;23.77;6.65;;;;;;;;;;6212292;23;20020;-65
2023/07/31 05:16:27;;;;;;;23.02;6.57;;;;;;;;;;6213525;23;20024;-65
2023/07/31 05:18:53;;;;;;;24.23;7.72;;;;;;;;;;6213799;23;20373;-65
2023/07/31 05:21:19;;;;;;;22.33;7.50;;;;;;;;;;6213927;23;20083;-65
2023/07/31 05:23:45;;;;;;;28.48;7.30;;;;;;;;;;6212652;23;20017;-65
2023/07/31 05:26:11;;;;;;;19.95;7.80;;;;;;;;;;6213425;23;20059;-65
2023/07/31 05:28:37;;;;;;;30.17;8.35;;;;;;;;;;6213089;23;20694;-65
2023/07/31 05:31:04;;;;;;;32.20;8.85;;;;;;;;;;6212733;23;20070;-65
2023/07/31 05:33:30;;;;;;;35.58;8.18;;;;;;;;;;6213081;23;20024;-65
2023/07/31 05:35:57;;;;;;;24.10;7.32;;;;;;;;;;6213281;23;20027;-65
2023/07/31 05:38:23;;;;;;;28.75;7.80;;;;;;;;;;6212986;23;20021;-65
2023/07/31 05:40:49;;;;;;;29.27;8.77;;;;;;;;;;6213313;23;20024;-65
2023/07/31 05:43:15;;;;;;;33.83;8.82;;;;;;;;;;6213059;23;20048;-65
2023/07/31 05:45:42;;;;;;;30.15;8.75;;;;;;;;;;6213148;23;20038;-65
2023/07/31 05:48:09;;;;;;;36.85;9.27;;;;;;;;;;6212416;23;20012;-65
2023/07/31 05:50:35;;;;;;;33.70;9.10;;;;;;;;;;6185992;23;20013;-65
2023/07/31 05:53:01;;;;;;;37.67;9.07;;;;;;;;;;6212689;23;20031;-65
2023/07/31 05:55:27;;;;;;;37.13;9.80;;;;;;;;;;6212580;23;20012;-65
2023/07/31 05:57:53;;;;;;;37.03;8.90;;;;;;;;;;6185975;23;20356;-66
2023/07/31 06:00:20;;;;;;;32.72;9.13;;;;;;;;;;6212270;23;20066;-66
2023/07/31 06:02:46;;;;;;;27.50;9.55;;;;;;;;;;6184475;23;20027;-65
2023/07/31 06:05:12;;;;;;;31.98;8.73;;;;;;;;;;6212005;23;20347;-65
2023/07/31 06:07:38;;;;;;;35.63;9.15;;;;;;;;;;6212865;23;20032;-65
2023/07/31 06:10:05;;;;;;;34.10;8.85;;;;;;;;;;6211269;23;20425;-65
2023/07/31 06:12:35;;;;;;;22.83;7.70;;;;;;;;;;6211856;23;20444;-65
2023/07/31 06:15:01;;;;;;;22.63;6.65;;;;;;;;;;6213278;23;20079;-65
2023/07/31 06:17:27;;;;;;;26.77;7.50;;;;;;;;;;6212894;23;20009;-65
2023/07/31 06:19:53;;;;;;;22.40;7.30;;;;;;;;;;6213239;23;20016;-65
2023/07/31 06:22:19;;;;;;;31.97;8.57;;;;;;;;;;6186864;23;20784;-65
2023/07/31 06:24:45;;;;;;;28.63;8.32;;;;;;;;;;6212823;23;20013;-65
2023/07/31 06:27:11;;;;;;;28.63;7.97;;;;;;;;;;6213189;23;20013;-65
2023/07/31 06:29:38;;;;;;;30.88;9.15;;;;;;;;;;6213432;23;20494;-65
2023/07/31 06:32:04;;;;;;;24.63;8.40;;;;;;;;;;6212443;23;20016;-65
2023/07/31 06:34:30;;;;;;;30.23;9.30;;;;;;;;;;6213127;23;20757;-65
2023/07/31 06:36:56;;;;;;;32.47;9.63;;;;;;;;;;6212568;23;20021;-66
2023/07/31 06:39:22;;;;;;;31.20;9.23;;;;;;;;;;6209760;23;20478;-66
2023/07/31 06:41:48;;;;;;;32.95;9.50;;;;;;;;;;6212513;23;20092;-65
2023/07/31 06:44:15;;;;;;;32.92;9.95;;;;;;;;;;6212752;23;20071;-65
2023/07/31 06:46:41;;;;;;;33.30;9.80;;;;;;;;;;6212328;23;20020;-64
2023/07/31 06:49:07;;;;;;;34.83;11.02;;;;;;;;;;6213068;23;20012;-64
2023/07/31 06:51:33;;;;;;;28.25;9.90;;;;;;;;;;6212871;23;20416;-64
2023/07/31 06:53:59;;;;;;;32.22;10.82;;;;;;;;;;6212259;23;20070;-65
2023/07/31 06:56:26;;;;;;;38.67;11.07;;;;;;;;;;6212878;23;20024;-66
2023/07/31 06:58:52;;;;;;;29.58;10.30;;;;;;;;;;6212587;23;20343;-66
2023/07/31 07:01:18;;;;;;;35.17;10.77;;;;;;;;;;6212409;23;20024;-66
2023/07/31 07:03:44;;;;;;;26.25;9.70;;;;;;;;;;6185548;23;20439;-67
2023/07/31 07:06:10;;;;;;;23.83;9.10;;;;;;;;;;6212521;23;20017;-67
2023/07/31 07:08:36;;;;;;;23.25;8.70;;;;;;;;;;6212213;23;20017;-67
2023/07/31 07:11:02;;;;;;;19.98;7.28;;;;;;;;;;6212686;23;20009;-67
2023/07/31 07:13:28;;;;;;;17.45;7.13;;;;;;;;;;6212477;23;20016;-67
2023/07/31 07:15:54;;;;;;;16.70;5.85;;;;;;;;;;6212357;23;20017;-67
2023/07/31 07:18:21;;;;;;;13.10;5.30;;;;;;;;;;6212769;23;20793;-66
2023/07/31 07:20:48;;;;;;;11.80;5.03;;;;;;;;;;6212376;23;20016;-65
2023/07/31 07:23:14;;;;;;;15.40;5.00;;;;;;;;;;6184081;23;20017;-65
2023/07/31 07:25:40;;;;;;;10.23;5.40;;;;;;;;;;6212003;23;20831;-65
2023/07/31 07:28:07;;;;;;;11.80;5.28;;;;;;;;;;6211914;23;20043;-65
2023/07/31 07:30:33;;;;;;;14.63;5.43;;;;;;;;;;6207348;23;20023;-66
2023/07/31 07:32:59;;;;;;;18.10;5.28;;;;;;;;;;6185211;23;20039;-65
2023/07/31 07:35:26;;;;;;;11.43;5.38;;;;;;;;;;6211712;23;20013;-67
2023/07/31 07:37:56;;;;;;;14.48;5.10;;;;;;;;;;6149370;23;20031;-67
2023/07/31 07:40:25;;;;;;;13.50;4.68;;;;;;;;;;6125506;23;20018;-67
2023/07/31 07:42:51;;;;;;;11.45;4.88;;;;;;;;;;6150955;23;20028;-67
2023/07/31 07:45:18;;;;;;;9.43;4.53;;;;;;;;;;6150297;23;20322;-67
2023/07/31 07:47:44;;;;;;;8.45;3.90;;;;;;;;;;6152050;23;20010;-64
2023/07/31 07:50:10;;;;;;;10.65;4.20;;;;;;;;;;6152622;23;20428;-64
2023/07/31 07:52:36;;;;;;;10.45;3.72;;;;;;;;;;6153325;23;20048;-64
2023/07/31 07:55:03;;;;;;;5.40;3.42;;;;;;;;;;6153605;23;20024;-64
2023/07/31 07:57:29;;;;;;;6.65;3.38;;;;;;;;;;6152442;23;20017;-65
2023/07/31 07:59:55;;;;;;;10.38;3.58;;;;;;;;;;6149571;23;20024;-67
2023/07/31 08:02:22;;;;;;;7.90;3.70;;;;;;;;;;6151677;23;20017;-66
2023/07/31 08:04:48;;;;;;;7.28;3.38;;;;;;;;;;6152373;23;20013;-64
2023/07/31 08:07:14;;;;;;;6.97;2.80;;;;;;;;;;6149985;23;20019;-64
2023/07/31 08:09:41;;;;;;;5.32;2.75;;;;;;;;;;6151912;23;20028;-66
2023/07/31 08:12:07;;;;;;;6.60;2.97;;;;;;;;;;6152774;23;20017;-65
2023/07/31 08:14:33;;;;;;;10.02;2.95;;;;;;;;;;6152158;23;20072;-66
2023/07/31 08:16:59;;;;;;;7.75;3.08;;;;;;;;;;6153735;23;20021;-65
2023/07/31 08:19:25;;;;;;;6.50;2.80;;;;;;;;;;6152239;23;20009;-65
2023/07/31 08:21:51;;;;;;;7.13;2.60;;;;;;;;;;6152293;23;20016;-65
2023/07/31 08:24:18;;;;;;;5.40;2.55;;;;;;;;;;6151093;23;20018;-66
2023/07/31 08:26:44;;;;;;;6.25;2.70;;;;;;;;;;6152248;23;20369;-67
2023/07/31 08:29:10;;;;;;;5.35;2.78;;;;;;;;;;6152723;23;20429;-65
2023/07/31 08:31:36;;;;;;;4.28;2.53;;;;;;;;;;6152993;23;20017;-64
2023/07/31 08:34:02;;;;;;;4.22;2.42;;;;;;;;;;6152720;23;20019;-64
2023/07/31 08:36:28;;;;;;;2.80;2.35;;;;;;;;;;6175082;23;20017;-66
2023/07/31 08:38:54;;;;;;;4.18;2.28;;;;;;;;;;6210184;23;20020;-65
2023/07/31 08:41:20;;;;;;;4.20;3.05;;;;;;;;;;6212586;23;20044;-65
2023/07/31 08:43:46;;;;;;;6.78;2.90;;;;;;;;;;6210438;23;20091;-65
2023/07/31 08:46:14;;;;;;;3.47;2.50;;;;;;;;;;6210715;23;20523;-65
2023/07/31 08:48:41;;;;;;;6.35;2.40;;;;;;;;;;6211629;23;20023;-66
2023/07/31 08:51:07;;;;;;;3.85;2.42;;;;;;;;;;6210854;23;20367;-67
2023/07/31 08:53:33;;;;;;;5.50;2.45;;;;;;;;;;6211754;23;20074;-67
2023/07/31 08:55:59;;;;;;;4.72;2.60;;;;;;;;;;6212082;23;20020;-68
2023/07/31 08:58:28;;;;;;;3.22;2.20;;;;;;;;;;6210539;23;20020;-67
2023/07/31 09:00:55;;;;;;;2.17;1.90;;;;;;;;;;6211185;23;20020;-66
2023/07/31 09:03:22;;;;;;;3.97;1.98;;;;;;;;;;6211155;23;20016;-65
2023/07/31 09:05:48;;;;;;;2.00;1.55;;;;;;;;;;6210636;23;20044;-65
2023/07/31 09:08:15;;;;;;;2.22;1.30;;;;;;;;;;6211623;23;20016;-65
2023/07/31 09:10:42;;;;;;;2.78;1.63;;;;;;;;;;6210880;23;20475;-64
2023/07/31 09:13:08;;;;;;;2.53;1.75;;;;;;;;;;6211781;23;20063;-65
2023/07/31 09:15:35;;;;;;;2.83;1.67;;;;;;;;;;6183551;23;20115;-66
2023/07/31 09:18:02;;;;;;;1.40;1.30;;;;;;;;;;6212310;23;20036;-66
2023/07/31 09:20:28;;;;;;;1.45;1.30;;;;;;;;;;6184947;23;20016;-64
2023/07/31 09:22:55;;;;;;;1.33;1.08;;;;;;;;;;6210916;23;20023;-64
2023/07/31 09:25:25;;;;;;;2.75;1.45;;;;;;;;;;6211930;23;20017;-65
2023/07/31 09:27:51;;;;;;;1.73;1.17;;;;;;;;;;6212175;23;20040;-65
2023/07/31 09:30:18;;;;;;;2.75;1.08;;;;;;;;;;6211552;23;20020;-64
2023/07/31 09:32:47;;;;;;;1.75;1.20;;;;;;;;;;6211847;23;20018;-64
2023/07/31 09:35:28;;;;;;;1.33;1.20;;;;;;;;;;6211426;23;20028;-65
2023/07/31 09:37:55;;;;;;;1.95;0.95;;;;;;;;;;6211895;23;20031;-65
2023/07/31 09:40:28;;;;;;;1.92;1.10;;;;;;;;;;6184764;23;20095;-66
2023/07/31 09:42:57;;;;;;;1.33;1.00;;;;;;;;;;6210485;23;20872;-65
2023/07/31 09:45:23;;;;;;;1.45;0.90;;;;;;;;;;6212311;23;20483;-66
2023/07/31 09:47:49;;;;;;;1.52;1.10;;;;;;;;;;6211814;23;20040;-65
2023/07/31 09:50:16;;;;;;;1.30;0.80;;;;;;;;;;6211658;23;20012;-65
2023/07/31 09:52:42;;;;;;;2.13;1.20;;;;;;;;;;6212547;23;20099;-66
2023/07/31 09:55:11;;;;;;;1.60;1.10;;;;;;;;;;6213448;23;20018;-65
2023/07/31 09:57:42;;;;;;;1.13;1.00;;;;;;;;;;6212345;23;20408;-65
2023/07/31 10:00:09;;;;;;;1.93;1.17;;;;;;;;;;6186223;23;20012;-65
2023/07/31 10:02:36;;;;;;;1.27;1.17;;;;;;;;;;6212075;23;20082;-65
2023/07/31 10:05:03;;;;;;;2.55;1.00;;;;;;;;;;6211296;23;20024;-65
2023/07/31 10:07:30;;;;;;;1.10;1.00;;;;;;;;;;6211361;23;20013;-67
2023/07/31 10:09:58;;;;;;;2.03;1.10;;;;;;;;;;6211430;23;20400;-66
2023/07/31 10:12:28;;;;;;;2.42;1.30;;;;;;;;;;6210838;23;20016;-65
2023/07/31 10:14:54;;;;;;;1.83;1.30;;;;;;;;;;6210856;23;20024;-65
2023/07/31 10:17:21;;;;;;;1.52;1.42;;;;;;;;;;6211805;23;20084;-65
2023/07/31 10:19:48;;;;;;;1.30;1.20;;;;;;;;;;6211459;23;20008;-65
2023/07/31 10:22:15;;;;;;;2.17;1.42;;;;;;;;;;6183212;23;20092;-65
2023/07/31 10:24:43;;;;;;;1.50;1.20;;;;;;;;;;6211377;23;20028;-65
2023/07/31 10:27:10;;;;;;;1.63;1.48;;;;;;;;;;6211731;23;20051;-64
2023/07/31 10:29:37;;;;;;;2.38;1.83;;;;;;;;;;6211906;23;20040;-63
2023/07/31 10:32:06;;;;;;;2.10;1.75;;;;;;;;;;6211241;23;20040;-65
2023/07/31 10:34:34;;;;;;;1.88;1.60;;;;;;;;;;6210980;23;20012;-66
2023/07/31 10:37:18;;;;;;;2.17;1.75;;;;;;;;;;6211565;23;20020;-65
2023/07/31 10:39:55;;;;;;;1.63;1.52;;;;;;;;;;6211660;23;20027;-65
2023/07/31 10:42:27;;;;;;;1.55;1.05;;;;;;;;;;6211814;23;20024;-65
2023/07/31 10:44:53;;;;;;;;;;;;;;;;;;6213103;23;20023;-65
2023/07/31 10:47:19;;;;;;;1.20;1.10;;;;;;;;;;6211578;23;19931;-65
2023/07/31 10:49:46;;;;;;;1.33;1.00;;;;;;;;;;6210965;23;20015;-65
2023/07/31 10:52:13;;;;;;;0.90;0.90;;;;;;;;;;6211555;23;20016;-65
2023/07/31 10:54:39;;;;;;;1.10;1.00;;;;;;;;;;6212026;23;20021;-65
2023/07/31 10:57:26;;;;;;;0.77;0.70;;;;;;;;;;6209183;23;20083;-64
2023/07/31 11:00:12;;;;;;;3.22;1.10;;;;;;;;;;6211369;23;20016;-63
2023/07/31 11:02:39;;;;;;;1.58;0.85;;;;;;;;;;6211260;23;20016;-64
2023/07/31 11:05:10;;;;;;;3.22;0.90;;;;;;;;;;6211345;23;20092;-64
2023/07/31 11:07:49;;;;;;;1.02;0.93;;;;;;;;;;6211397;23;20012;-64
2023/07/31 11:10:18;;;;;;;1.23;0.90;;;;;;;;;;6211007;23;20013;-64
2023/07/31 11:12:45;;;;;;;1.25;0.77;;;;;;;;;;6210298;23;20016;-64
2023/07/31 11:15:11;;;;;;;0.75;0.75;;;;;;;;;;6185054;23;20357;-65
2023/07/31 11:17:41;;;;;;;2.25;0.82;;;;;;;;;;6212193;23;20037;-65
2023/07/31 11:20:07;;;;;;;2.03;1.38;;;;;;;;;;6211412;23;20013;-65
2023/07/31 11:22:36;;;;;;;2.92;1.40;;;;;;;;;;6212606;23;20066;-65
2023/07/31 11:25:03;;;;;;;1.65;1.08;;;;;;;;;;6212448;23;20013;-64
2023/07/31 11:27:30;;;;;;;2.47;1.52;;;;;;;;;;6212179;23;20017;-65
2023/07/31 11:30:02;;;;;;;3.10;1.50;;;;;;;;;;6214749;23;20016;-64
2023/07/31 11:32:28;;;;;;;2.28;1.40;;;;;;;;;;6213873;23;20013;-65
2023/07/31 11:34:55;;;;;;;2.72;1.60;;;;;;;;;;6213705;23;20106;-65
2023/07/31 11:37:21;;;;;;;2.45;1.60;;;;;;;;;;6213022;23;20094;-67
2023/07/31 11:40:00;;;;;;;3.83;2.00;;;;;;;;;;6213183;23;20019;-66
2023/07/31 11:42:26;;;;;;;2.05;1.55;;;;;;;;;;6212757;23;20019;-66
2023/07/31 11:44:52;;;;;;;3.45;1.60;;;;;;;;;;6213176;23;20020;-66
2023/07/31 11:47:18;;;;;;;3.70;1.77;;;;;;;;;;6213624;23;20008;-67
2023/07/31 11:49:44;;;;;;;3.05;1.50;;;;;;;;;;6212514;23;20071;-67
2023/07/31 11:52:11;;;;;;;3.65;1.80;;;;;;;;;;6213234;23;20013;-67
2023/07/31 11:54:38;;;;;;;3.83;2.28;;;;;;;;;;6213555;23;20013;-66
2023/07/31 11:57:04;;;;;;;5.38;2.80;;;;;;;;;;6213486;23;20439;-66
2023/07/31 11:59:31;;;;;;;5.25;3.28;;;;;;;;;;6211408;23;20017;-66
2023/07/31 12:01:57;;;;;;;10.07;3.95;;;;;;;;;;6213521;23;20012;-65
2023/07/31 12:04:24;;;;;;;5.15;3.85;;;;;;;;;;6212146;23;20139;-66
2023/07/31 12:06:50;;;;;;;8.02;3.50;;;;;;;;;;6185642;23;20012;-65
2023/07/31 12:09:16;;;;;;;7.88;4.32;;;;;;;;;;6212262;23;20092;-65
2023/07/31 12:11:48;;;;;;;8.35;3.70;;;;;;;;;;6212148;23;20087;-66
2023/07/31 12:14:31;;;;;;;7.70;3.72;;;;;;;;;;6185638;23;20016;-66
2023/07/31 12:17:01;;;;;;;7.05;2.92;;;;;;;;;;6213571;23;20454;-66
2023/07/31 12:19:29;;;;;;;4.93;2.50;;;;;;;;;;6185335;23;20016;-67
2023/07/31 12:21:55;;;;;;;3.45;1.80;;;;;;;;;;6212027;23;20075;-67
2023/07/31 12:24:21;;;;;;;4.18;1.48;;;;;;;;;;6212096;23;20020;-67
2023/07/31 12:26:48;;;;;;;2.72;1.27;;;;;;;;;;6212151;23;20013;-67
2023/07/31 12:29:15;;;;;;;4.50;1.33;;;;;;;;;;6212540;23;20062;-67
2023/07/31 12:31:44;;;;;;;3.75;1.15;;;;;;;;;;6212824;23;20155;-65
2023/07/31 12:34:21;;;;;;;1.50;1.23;;;;;;;;;;6184621;23;20027;-66
2023/07/31 12:36:49;;;;;;;3.85;1.70;;;;;;;;;;6212617;23;20027;-67
2023/07/31 12:39:15;;;;;;;3.55;1.85;;;;;;;;;;6212491;23;20016;-68
2023/07/31 12:41:41;;;;;;;5.50;2.35;;;;;;;;;;6185878;23;20032;-66
2023/07/31 12:44:07;;;;;;;7.13;2.28;;;;;;;;;;6211858;23;20328;-67
2023/07/31 12:46:33;;;;;;;5.18;2.08;;;;;;;;;;6210880;23;20012;-67
2023/07/31 12:48:59;;;;;;;5.72;2.78;;;;;;;;;;6186366;23;20050;-67
2023/07/31 12:51:25;;;;;;;5.90;2.85;;;;;;;;;;6214256;23;20016;-67
2023/07/31 12:53:51;;;;;;;4.60;2.67;;;;;;;;;;6213664;23;20459;-67
2023/07/31 12:56:18;;;;;;;6.82;2.75;;;;;;;;;;6212403;23;20013;-67
2023/07/31 12:58:44;;;;;;;4.95;3.25;;;;;;;;;;6212638;23;20371;-67
2023/07/31 13:01:10;;;;;;;8.52;3.47;;;;;;;;;;6213760;23;20016;-67
2023/07/31 13:03:36;;;;;;;6.80;4.30;;;;;;;;;;6212908;23;20407;-67
2023/07/31 13:06:02;;;;;;;7.45;3.70;;;;;;;;;;6213860;23;20012;-67
2023/07/31 13:08:28;;;;;;;7.00;3.80;;;;;;;;;;6213569;23;20418;-67
2023/07/31 13:10:54;;;;;;;8.60;4.00;;;;;;;;;;6213098;23;20062;-66
2023/07/31 13:13:21;;;;;;;11.00;3.80;;;;;;;;;;6213221;23;20017;-65
2023/07/31 13:15:47;;;;;;;12.02;4.70;;;;;;;;;;6213611;23;20081;-65
2023/07/31 13:18:13;;;;;;;12.07;4.90;;;;;;;;;;6213112;23;20023;-65
2023/07/31 13:20:39;;;;;;;11.68;3.83;;;;;;;;;;6213554;23;20083;-65
2023/07/31 13:23:05;;;;;;;12.25;3.80;;;;;;;;;;6213088;23;20055;-65
2023/07/31 13:25:31;;;;;;;12.23;3.88;;;;;;;;;;6211394;23;20067;-65
2023/07/31 13:27:57;;;;;;;10.68;3.45;;;;;;;;;;6213448;23;20424;-66
2023/07/31 13:30:23;;;;;;;8.23;3.33;;;;;;;;;;6213369;23;20020;-67
2023/07/31 13:32:49;;;;;;;7.13;3.17;;;;;;;;;;6212385;23;20023;-68
2023/07/31 13:35:15;;;;;;;9.73;3.28;;;;;;;;;;6213479;23;20040;-67
2023/07/31 13:37:41;;;;;;;11.60;3.40;;;;;;;;;;6212876;23;20102;-66
2023/07/31 13:40:07;;;;;;;12.23;3.55;;;;;;;;;;6212801;23;20436;-66
2023/07/31 13:42:33;;;;;;;12.27;3.70;;;;;;;;;;6212706;23;20685;-67
2023/07/31 13:45:00;;;;;;;6.50;3.13;;;;;;;;;;6213084;23;20396;-67
2023/07/31 13:47:26;;;;;;;7.03;3.00;;;;;;;;;;6185376;23;20012;-67
2023/07/31 13:49:52;;;;;;;10.20;3.05;;;;;;;;;;6213040;23;20008;-67
2023/07/31 13:52:18;;;;;;;10.05;3.08;;;;;;;;;;6211874;23;20347;-68
2023/07/31 13:54:44;;;;;;;7.18;2.42;;;;;;;;;;6213999;23;20016;-66
2023/07/31 13:57:10;;;;;;;8.60;2.80;;;;;;;;;;6215494;23;20138;-65
2023/07/31 13:59:36;;;;;;;7.82;2.92;;;;;;;;;;6212779;23;20009;-65
2023/07/31 14:02:03;;;;;;;9.07;2.60;;;;;;;;;;6212132;23;20013;-66
2023/07/31 14:04:29;;;;;;;8.73;2.38;;;;;;;;;;6185891;23;20071;-66
2023/07/31 14:06:56;;;;;;;8.90;2.70;;;;;;;;;;6212455;23;20012;-66
2023/07/31 14:09:22;;;;;;;9.38;2.97;;;;;;;;;;6212193;23;20012;-67
2023/07/31 14:11:48;;;;;;;7.57;3.05;;;;;;;;;;6213131;23;20012;-67
2023/07/31 14:14:14;;;;;;;8.30;3.53;;;;;;;;;;6212549;23;20017;-67
2023/07/31 14:16:40;;;;;;;10.90;3.40;;;;;;;;;;6212840;23;20012;-64
2023/07/31 14:19:08;;;;;;;8.68;3.38;;;;;;;;;;6212518;23;20021;-66
2023/07/31 14:21:34;;;;;;;6.22;2.85;;;;;;;;;;6212231;23;20066;-66
2023/07/31 14:24:00;;;;;;;9.90;3.40;;;;;;;;;;6212260;23;20020;-64
2023/07/31 14:26:26;;;;;;;7.50;3.03;;;;;;;;;;6213156;23;20051;-64
2023/07/31 14:28:53;;;;;;;9.15;3.72;;;;;;;;;;6187809;23;20623;-65
2023/07/31 14:31:19;;;;;;;8.57;3.08;;;;;;;;;;6213456;23;20012;-65
2023/07/31 14:33:45;;;;;;;9.85;3.20;;;;;;;;;;6213871;23;20023;-65
2023/07/31 14:36:11;;;;;;;12.32;3.55;;;;;;;;;;6197209;23;20026;-67
2023/07/31 14:38:37;;;;;;;6.38;2.85;;;;;;;;;;6152086;23;20112;-66